createdAt,value
2022-11-17T00:01:27.364Z,67.13
2022-11-17T00:04:00.511Z,67.29
2022-11-17T00:20:17.356Z,67.31
2022-11-17T00:22:50.551Z,67.19
2022-11-17T00:25:31.366Z,67.28
2022-11-17T00:28:04.739Z,67.25
2022-11-17T00:47:11.324Z,67.34
2022-11-17T00:49:51.344Z,67.45
2022-11-17T00:52:24.605Z,67.37
2022-11-17T00:54:51.260Z,67.45
2022-11-17T00:57:41.704Z,67.30
2022-11-17T01:00:15.070Z,67.36
2022-11-17T01:13:05.323Z,66.89
2022-11-17T01:15:45.344Z,67.00
2022-11-17T01:18:18.550Z,66.71
2022-11-17T01:20:45.255Z,66.70
2022-11-17T01:23:25.468Z,66.60
2022-11-17T01:26:03.134Z,66.58
2022-11-17T01:39:00.350Z,66.68
2022-11-17T01:41:40.329Z,66.93
2022-11-17T01:44:53.535Z,66.97
2022-11-17T01:47:45.433Z,67.01
2022-11-17T01:50:32.145Z,67.13
2022-11-17T02:06:55.408Z,67.00
2022-11-17T02:09:29.602Z,67.00
2022-11-17T02:12:05.338Z,66.84
2022-11-17T02:14:39.872Z,66.71
2022-11-17T02:17:15.386Z,66.76
2022-11-17T02:20:03.450Z,66.53
2022-11-17T02:33:10.348Z,66.46
2022-11-17T02:35:59.324Z,66.80
2022-11-17T02:38:42.004Z,66.68
2022-11-17T02:41:31.354Z,66.75
2022-11-17T02:44:12.256Z,66.68
2022-11-17T03:00:37.308Z,66.88
2022-11-17T03:03:37.463Z,67.17
2022-11-17T03:06:32.309Z,66.80
2022-11-17T03:09:15.541Z,67.04
2022-11-17T03:12:05.313Z,67.02
2022-11-17T03:14:52.220Z,66.84
2022-11-17T03:25:07.340Z,66.96
2022-11-17T03:27:47.604Z,67.17
2022-11-17T03:30:27.329Z,67.01
2022-11-17T03:33:08.910Z,66.80
2022-11-17T03:35:54.308Z,66.69
2022-11-17T03:38:36.083Z,66.81
2022-11-17T03:41:20.311Z,66.94
2022-11-17T03:51:50.272Z,66.95
2022-11-17T03:54:32.875Z,66.91
2022-11-17T03:57:16.643Z,67.13
2022-11-17T04:00:04.344Z,67.10
2022-11-17T04:02:41.995Z,67.20
2022-11-17T04:05:23.352Z,67.08
2022-11-17T04:18:43.347Z,66.87
2022-11-17T04:21:17.040Z,66.99
2022-11-17T04:23:50.283Z,66.99
2022-11-17T04:26:24.220Z,66.78
2022-11-17T04:28:57.316Z,66.77
2022-11-17T04:31:31.566Z,66.75
2022-11-17T04:34:09.333Z,66.92
2022-11-17T04:47:19.304Z,66.83
2022-11-17T04:49:54.400Z,66.88
2022-11-17T04:52:29.945Z,66.90
2022-11-17T04:55:04.306Z,67.05
2022-11-17T04:57:37.776Z,66.89
2022-11-17T05:00:14.210Z,66.75
2022-11-17T05:13:04.326Z,67.08
2022-11-17T05:15:44.286Z,66.74
2022-11-17T05:18:17.416Z,66.93
2022-11-17T05:20:44.073Z,66.79
2022-11-17T05:23:24.287Z,66.89
2022-11-17T05:25:57.457Z,66.86
2022-11-17T05:39:02.276Z,67.01
2022-11-17T05:41:43.359Z,67.12
2022-11-17T05:44:16.433Z,67.32
2022-11-17T05:46:43.165Z,67.12
2022-11-17T05:49:23.298Z,67.41
2022-11-17T05:51:56.531Z,67.29
2022-11-17T05:54:31.281Z,67.17
2022-11-17T06:07:42.296Z,67.04
2022-11-17T06:10:17.721Z,67.12
2022-11-17T06:12:51.304Z,67.26
2022-11-17T06:15:24.702Z,67.25
2022-11-17T06:18:04.349Z,67.18
2022-11-17T06:20:43.846Z,67.31
2022-11-17T06:33:43.235Z,67.35
2022-11-17T06:36:23.287Z,67.26
2022-11-17T06:38:57.009Z,67.43
2022-11-17T06:41:37.263Z,67.38
2022-11-17T06:44:10.438Z,67.69
2022-11-17T07:00:26.268Z,67.61
2022-11-17T07:03:00.244Z,67.52
2022-11-17T07:05:33.778Z,67.45
2022-11-17T07:08:09.249Z,67.49
2022-11-17T07:10:49.165Z,67.70
2022-11-17T07:13:24.244Z,67.39
2022-11-17T07:15:59.304Z,67.35
2022-11-17T07:25:59.228Z,67.26
2022-11-17T07:28:41.273Z,67.44
2022-11-17T07:31:16.443Z,67.30
2022-11-17T07:33:50.260Z,67.39
2022-11-17T07:36:23.320Z,67.35
2022-11-17T07:39:03.271Z,67.42
2022-11-17T07:52:45.255Z,67.57
2022-11-17T07:55:18.901Z,67.42
2022-11-17T07:57:52.273Z,67.52
2022-11-17T08:00:27.355Z,67.42
2022-11-17T08:03:00.272Z,67.41
2022-11-17T08:05:41.715Z,67.36
2022-11-17T08:19:23.211Z,67.41
2022-11-17T08:22:05.248Z,67.50
2022-11-17T08:24:38.496Z,67.50
2022-11-17T08:27:05.211Z,67.59
2022-11-17T08:29:45.264Z,67.52
2022-11-17T08:32:18.524Z,67.47
2022-11-17T08:34:52.273Z,67.18
2022-11-17T08:48:04.248Z,67.30
2022-11-17T08:50:37.474Z,67.36
2022-11-17T08:53:04.193Z,67.33
2022-11-17T08:55:44.312Z,67.23
2022-11-17T08:58:17.476Z,67.46
2022-11-17T09:00:51.307Z,67.30
2022-11-17T09:14:02.773Z,67.39
2022-11-17T09:16:37.160Z,67.14
2022-11-17T09:19:10.237Z,66.98
2022-11-17T09:21:43.521Z,66.83
2022-11-17T09:24:17.293Z,66.89
2022-11-17T09:40:54.208Z,67.10
2022-11-17T09:43:37.240Z,67.14
2022-11-17T09:46:17.701Z,67.44
2022-11-17T09:49:08.223Z,67.26
2022-11-17T09:51:48.017Z,67.32
2022-11-17T09:54:53.238Z,67.48
2022-11-17T10:08:12.216Z,67.54
2022-11-17T10:10:49.937Z,67.24
2022-11-17T10:16:21.111Z,67.46
2022-11-17T10:18:54.343Z,67.15
2022-11-17T10:21:27.241Z,66.92
2022-11-17T10:34:42.231Z,67.09
2022-11-17T10:37:29.726Z,66.78
2022-11-17T10:40:25.977Z,66.83
2022-11-17T10:43:22.936Z,67.02
2022-11-17T10:46:08.245Z,66.93
2022-11-17T11:00:01.210Z,66.75
2022-11-17T11:02:37.166Z,66.28
2022-11-17T11:05:21.229Z,66.31
2022-11-17T11:08:21.115Z,66.05
2022-11-17T11:11:05.228Z,65.90
2022-11-17T11:13:49.424Z,66.05
2022-11-17T11:26:48.181Z,65.81
2022-11-17T11:29:43.220Z,65.88
2022-11-17T11:32:33.428Z,66.01
2022-11-17T11:35:45.232Z,66.00
2022-11-17T11:38:49.620Z,65.83
2022-11-17T11:55:05.207Z,65.78
2022-11-17T11:57:48.240Z,65.78
2022-11-17T12:00:28.192Z,65.85
2022-11-17T12:03:15.187Z,65.61
2022-11-17T12:06:12.213Z,65.65
2022-11-17T12:09:00.548Z,65.74
2022-11-17T12:21:20.180Z,65.81
2022-11-17T12:24:21.214Z,65.69
2022-11-17T12:27:48.112Z,65.70
2022-11-17T12:30:57.213Z,65.56
2022-11-17T12:34:21.788Z,65.68
2022-11-17T12:47:25.176Z,65.71
2022-11-17T12:50:50.195Z,65.93
2022-11-17T12:53:51.745Z,65.93
2022-11-17T12:56:59.215Z,65.75
2022-11-17T13:00:03.558Z,65.95
2022-11-17T13:13:46.864Z,65.90
2022-11-17T13:16:29.185Z,65.89
2022-11-17T13:19:03.830Z,65.79
2022-11-17T13:21:40.229Z,65.73
2022-11-17T13:24:29.593Z,65.70
2022-11-17T13:27:12.220Z,65.59
2022-11-17T13:29:45.433Z,65.58
2022-11-17T13:42:38.151Z,65.54
2022-11-17T13:45:22.195Z,65.87
2022-11-17T13:47:56.657Z,65.46
2022-11-17T13:50:43.164Z,65.44
2022-11-17T13:53:24.802Z,65.39
2022-11-17T13:56:05.166Z,65.54
2022-11-17T14:09:17.238Z,65.57
2022-11-17T14:11:50.774Z,65.85
2022-11-17T14:14:33.168Z,65.93
2022-11-17T14:17:18.942Z,66.06
2022-11-17T14:19:59.173Z,65.88
2022-11-17T14:33:54.208Z,66.13
2022-11-17T14:36:31.432Z,66.16
2022-11-17T14:39:19.171Z,66.23
2022-11-17T14:41:52.423Z,66.35
2022-11-17T14:44:19.104Z,66.40
2022-11-17T14:46:59.159Z,66.48
2022-11-17T14:49:32.381Z,66.60
2022-11-17T15:02:22.126Z,67.18
2022-11-17T15:05:02.267Z,67.24
2022-11-17T15:07:35.481Z,67.38
2022-11-17T15:10:10.207Z,67.40
2022-11-17T15:12:43.440Z,67.47
2022-11-17T15:15:17.182Z,67.62
2022-11-17T15:28:30.496Z,68.04
2022-11-17T15:31:13.365Z,68.06
2022-11-17T15:33:54.149Z,68.10
2022-11-17T15:36:32.790Z,67.94
2022-11-17T15:39:13.382Z,68.12
2022-11-17T15:55:50.132Z,68.22
2022-11-17T15:58:30.168Z,68.42
2022-11-17T16:01:12.838Z,68.44
2022-11-17T16:03:53.152Z,68.30
2022-11-17T16:06:27.423Z,68.49
2022-11-17T16:09:01.173Z,68.21
2022-11-17T16:11:37.072Z,68.26
2022-11-17T16:21:09.156Z,68.19
2022-11-17T16:23:48.740Z,68.54
2022-11-17T16:26:24.139Z,68.58
2022-11-17T16:29:01.935Z,68.48
2022-11-17T16:31:43.658Z,68.57
2022-11-17T16:34:17.345Z,68.80
2022-11-17T16:49:51.619Z,68.63
2022-11-17T16:52:25.343Z,68.63
2022-11-17T16:55:05.418Z,68.58
2022-11-17T16:57:41.498Z,68.69
2022-11-17T17:00:17.116Z,68.49
2022-11-17T17:16:54.105Z,68.63
2022-11-17T17:19:34.136Z,68.68
2022-11-17T17:22:07.325Z,68.38
2022-11-17T17:24:33.984Z,68.49
2022-11-17T17:27:14.160Z,68.62
2022-11-17T17:29:47.443Z,68.56
2022-11-17T17:42:38.101Z,68.48
2022-11-17T17:45:18.128Z,68.72
2022-11-17T17:47:51.315Z,68.52
2022-11-17T17:50:25.144Z,68.45
2022-11-17T17:52:58.332Z,68.58
2022-11-17T17:55:32.129Z,68.61
2022-11-17T18:08:45.121Z,68.63
2022-11-17T18:11:21.614Z,68.53
2022-11-17T18:13:57.192Z,68.52
2022-11-17T18:16:32.828Z,68.41
2022-11-17T18:19:09.139Z,68.51
2022-11-17T18:21:42.687Z,68.42
2022-11-17T18:34:48.092Z,68.53
2022-11-17T18:37:28.309Z,68.47
2022-11-17T18:40:01.389Z,68.46
2022-11-17T18:42:28.129Z,68.31
2022-11-17T18:45:08.144Z,68.27
2022-11-17T18:47:41.301Z,68.41
2022-11-17T18:50:17.105Z,68.41
2022-11-17T19:03:27.117Z,68.41
2022-11-17T19:06:04.864Z,68.46
2022-11-17T19:08:45.187Z,68.39
2022-11-17T19:11:21.279Z,68.40
2022-11-17T19:13:55.108Z,68.21
2022-11-17T19:16:29.575Z,68.33
2022-11-17T19:29:20.232Z,68.33
2022-11-17T19:32:00.119Z,68.57
2022-11-17T19:34:33.297Z,68.40
2022-11-17T19:36:59.968Z,68.43
2022-11-17T19:39:41.407Z,68.45
2022-11-17T19:56:18.063Z,68.49
2022-11-17T19:58:59.096Z,68.37
2022-11-17T20:01:33.020Z,68.45
2022-11-17T20:04:07.118Z,68.46
2022-11-17T20:06:40.336Z,68.32
2022-11-17T20:09:15.684Z,68.32
2022-11-17T20:22:28.083Z,68.54
2022-11-17T20:25:09.104Z,68.47
2022-11-17T20:27:49.091Z,68.54
2022-11-17T20:30:22.394Z,68.46
2022-11-17T20:32:49.064Z,68.63
2022-11-17T20:35:29.073Z,68.46
2022-11-17T20:48:41.190Z,68.69
2022-11-17T20:51:16.623Z,68.62
2022-11-17T20:53:50.097Z,68.59
2022-11-17T20:56:23.296Z,68.32
2022-11-17T20:58:49.983Z,68.34
2022-11-17T21:01:30.122Z,68.27
2022-11-17T21:15:17.100Z,68.36
2022-11-17T21:17:50.552Z,68.39
2022-11-17T21:20:24.102Z,68.58
2022-11-17T21:22:57.308Z,68.37
2022-11-17T21:25:31.067Z,68.18
2022-11-17T21:28:04.712Z,68.38
2022-11-17T21:30:40.080Z,68.41
2022-11-17T21:43:54.136Z,68.29
2022-11-17T21:46:32.746Z,68.39
2022-11-17T21:49:20.077Z,68.24
2022-11-17T21:51:53.265Z,68.58
2022-11-17T21:54:27.165Z,68.48
2022-11-17T22:11:09.036Z,68.11
2022-11-17T22:13:49.149Z,68.25
2022-11-17T22:16:23.725Z,68.14
2022-11-17T22:18:57.061Z,67.99
2022-11-17T22:21:31.875Z,67.88
2022-11-17T22:24:05.076Z,67.82
2022-11-17T22:26:47.750Z,67.81
2022-11-17T22:36:26.064Z,67.32
2022-11-17T22:38:59.282Z,67.42
2022-11-17T22:41:25.948Z,67.60
2022-11-17T22:44:08.588Z,67.39
2022-11-17T22:46:42.473Z,67.53
2022-11-17T22:49:16.323Z,67.73
2022-11-17T22:51:49.299Z,67.75
2022-11-17T23:04:39.019Z,68.04
2022-11-17T23:07:25.141Z,68.08
2022-11-17T23:09:58.226Z,67.94
2022-11-17T23:12:32.077Z,68.02
2022-11-17T23:15:07.545Z,68.22
2022-11-17T23:31:24.064Z,67.77
2022-11-17T23:33:57.380Z,67.70
2022-11-17T23:36:31.150Z,67.83
2022-11-17T23:39:04.387Z,67.85
2022-11-17T23:41:38.036Z,68.00
2022-11-17T23:44:11.286Z,67.81
2022-11-17T23:46:46.886Z,68.04
2022-11-17T23:56:32.010Z,68.17
2022-11-17T23:59:12.049Z,68.04
